createdAt,value
2023-03-29T00:00:22.450Z,994.56
2023-03-29T00:01:35.083Z,994.56
2023-03-29T00:02:23.472Z,994.53
2023-03-29T00:03:23.435Z,994.52
2023-03-29T00:04:22.466Z,994.51
2023-03-29T00:05:22.388Z,994.52
2023-03-29T00:06:22.411Z,994.54
2023-03-29T00:07:22.648Z,994.47
2023-03-29T00:08:22.975Z,994.45
2023-03-29T00:09:22.431Z,994.43
2023-03-29T00:10:22.408Z,994.44
2023-03-29T00:11:22.324Z,994.44
2023-03-29T00:12:22.422Z,994.46
2023-03-29T00:13:22.481Z,994.43
2023-03-29T00:14:22.448Z,994.45
2023-03-29T00:15:22.309Z,994.38
2023-03-29T00:16:22.357Z,994.40
2023-03-29T00:17:22.262Z,994.35
2023-03-29T00:18:22.215Z,994.31
2023-03-29T00:19:22.203Z,994.33
2023-03-29T00:20:22.188Z,994.32
2023-03-29T00:21:22.191Z,994.32
2023-03-29T00:22:22.194Z,994.31
2023-03-29T00:23:22.150Z,994.28
2023-03-29T00:24:22.234Z,994.29
2023-03-29T00:25:22.137Z,994.23
2023-03-29T00:26:22.125Z,994.23
2023-03-29T00:27:22.127Z,994.20
2023-03-29T00:28:22.080Z,994.20
2023-03-29T00:29:22.072Z,994.21
2023-03-29T00:30:22.064Z,994.20
2023-03-29T00:31:22.084Z,994.17
2023-03-29T00:32:22.083Z,994.16
2023-03-29T00:33:22.016Z,994.14
2023-03-29T00:34:22.016Z,994.12
2023-03-29T00:35:22.067Z,994.12
2023-03-29T00:36:21.983Z,994.15
2023-03-29T00:37:22.023Z,994.13
2023-03-29T00:38:21.985Z,994.12
2023-03-29T00:39:21.952Z,994.12
2023-03-29T00:40:21.950Z,994.08
2023-03-29T00:41:21.939Z,994.07
2023-03-29T00:42:21.968Z,994.11
2023-03-29T00:43:22.016Z,994.11
2023-03-29T00:44:21.877Z,994.13
2023-03-29T00:45:21.868Z,994.09
2023-03-29T00:46:21.932Z,994.10
2023-03-29T00:47:21.880Z,994.10
2023-03-29T00:48:21.829Z,994.10
2023-03-29T00:49:21.821Z,994.09
2023-03-29T00:50:21.865Z,994.12
2023-03-29T00:51:21.800Z,994.10
2023-03-29T00:52:21.829Z,994.10
2023-03-29T00:53:21.774Z,994.09
2023-03-29T00:54:21.767Z,994.04
2023-03-29T00:55:21.785Z,994.06
2023-03-29T00:56:21.736Z,994.04
2023-03-29T00:57:22.061Z,994.08
2023-03-29T00:58:21.708Z,994.09
2023-03-29T00:59:21.678Z,994.08
2023-03-29T01:00:21.678Z,994.07
2023-03-29T01:01:21.681Z,994.03
2023-03-29T01:02:25.297Z,994.00
2023-03-29T01:03:21.712Z,994.03
2023-03-29T01:04:21.611Z,993.96
2023-03-29T01:05:21.629Z,993.99
2023-03-29T01:06:21.602Z,993.96
2023-03-29T01:07:21.668Z,993.93
2023-03-29T01:08:21.568Z,993.99
2023-03-29T01:09:21.548Z,993.98
2023-03-29T01:10:21.564Z,993.94
2023-03-29T01:11:21.536Z,993.95
2023-03-29T01:12:21.539Z,993.91
2023-03-29T01:13:21.510Z,993.92
2023-03-29T01:14:21.505Z,993.92
2023-03-29T01:15:21.478Z,993.90
2023-03-29T01:16:21.514Z,993.86
2023-03-29T01:17:22.447Z,993.92
2023-03-29T01:18:21.433Z,993.80
2023-03-29T01:19:21.463Z,993.76
2023-03-29T01:20:21.420Z,993.76
2023-03-29T01:21:21.432Z,993.73
2023-03-29T01:22:21.428Z,993.79
2023-03-29T01:23:21.388Z,993.78
2023-03-29T01:24:21.367Z,993.76
2023-03-29T01:25:21.363Z,993.67
2023-03-29T01:26:21.342Z,993.72
2023-03-29T01:27:21.346Z,993.63
2023-03-29T01:28:21.336Z,993.64
2023-03-29T01:29:21.301Z,993.63
2023-03-29T01:30:21.291Z,993.63
2023-03-29T01:31:21.312Z,993.62
2023-03-29T01:32:21.313Z,993.59
2023-03-29T01:33:21.279Z,993.64
2023-03-29T01:34:21.229Z,993.59
2023-03-29T01:35:21.230Z,993.56
2023-03-29T01:36:21.244Z,993.57
2023-03-29T01:37:21.225Z,993.59
2023-03-29T01:38:21.219Z,993.60
2023-03-29T01:39:21.163Z,993.54
2023-03-29T01:40:21.148Z,993.56
2023-03-29T01:41:21.139Z,993.50
2023-03-29T01:42:21.161Z,993.50
2023-03-29T01:43:21.123Z,993.46
2023-03-29T01:44:21.106Z,993.47
2023-03-29T01:45:21.090Z,993.47
2023-03-29T01:46:21.102Z,993.49
2023-03-29T01:47:21.154Z,993.45
2023-03-29T01:48:21.058Z,993.47
2023-03-29T01:49:21.039Z,993.37
2023-03-29T01:50:21.024Z,993.42
2023-03-29T01:51:21.000Z,993.36
2023-03-29T01:52:21.028Z,993.35
2023-03-29T01:53:21.010Z,993.32
2023-03-29T01:54:20.966Z,993.31
2023-03-29T01:55:20.968Z,993.40
2023-03-29T01:56:20.948Z,993.39
2023-03-29T01:57:21.036Z,993.35
2023-03-29T01:58:20.929Z,993.39
2023-03-29T01:59:20.888Z,993.36
2023-03-29T02:00:20.908Z,993.30
2023-03-29T02:01:20.889Z,993.27
2023-03-29T02:02:20.914Z,993.30
2023-03-29T02:03:20.981Z,993.26
2023-03-29T02:04:20.853Z,993.25
2023-03-29T02:05:20.834Z,993.22
2023-03-29T02:06:20.821Z,993.18
2023-03-29T02:07:20.839Z,993.16
2023-03-29T02:08:20.823Z,993.07
2023-03-29T02:09:20.775Z,993.03
2023-03-29T02:10:20.794Z,993.00
2023-03-29T02:11:20.740Z,993.06
2023-03-29T02:12:20.817Z,992.98
2023-03-29T02:13:20.720Z,992.94
2023-03-29T02:14:20.738Z,992.90
2023-03-29T02:15:20.693Z,992.78
2023-03-29T02:16:20.753Z,992.73
2023-03-29T02:17:20.701Z,992.81
2023-03-29T02:18:20.685Z,992.89
2023-03-29T02:19:20.649Z,992.89
2023-03-29T02:20:20.672Z,992.95
2023-03-29T02:21:20.614Z,992.89
2023-03-29T02:22:20.618Z,992.87
2023-03-29T02:23:20.633Z,992.88
2023-03-29T02:24:20.599Z,992.89
2023-03-29T02:25:20.621Z,992.88
2023-03-29T02:26:20.593Z,992.84
2023-03-29T02:27:20.564Z,992.85
2023-03-29T02:28:20.628Z,992.83
2023-03-29T02:29:20.517Z,992.85
2023-03-29T02:30:20.549Z,992.82
2023-03-29T02:31:20.514Z,992.79
2023-03-29T02:32:20.474Z,992.82
2023-03-29T02:33:20.642Z,992.79
2023-03-29T02:34:20.492Z,992.78
2023-03-29T02:35:20.427Z,992.77
2023-03-29T02:36:20.438Z,992.73
2023-03-29T02:37:20.409Z,992.65
2023-03-29T02:38:20.430Z,992.66
2023-03-29T02:39:21.199Z,992.65
2023-03-29T02:40:20.380Z,992.62
2023-03-29T02:41:20.402Z,992.59
2023-03-29T02:42:20.483Z,992.62
2023-03-29T02:43:20.431Z,992.55
2023-03-29T02:44:20.496Z,992.53
2023-03-29T02:45:20.322Z,992.55
2023-03-29T02:46:20.427Z,992.55
2023-03-29T02:47:20.280Z,992.54
2023-03-29T02:48:20.368Z,992.51
2023-03-29T02:49:20.346Z,992.56
2023-03-29T02:50:20.255Z,992.54
2023-03-29T02:51:20.481Z,992.50
2023-03-29T02:52:24.349Z,992.51
2023-03-29T02:53:20.311Z,992.53
2023-03-29T02:54:20.371Z,992.50
2023-03-29T02:55:20.343Z,992.47
2023-03-29T02:56:24.227Z,992.46
2023-03-29T02:57:20.312Z,992.49
2023-03-29T02:58:20.251Z,992.45
2023-03-29T02:59:20.127Z,992.48
2023-03-29T03:00:20.203Z,992.52
2023-03-29T03:01:20.460Z,992.45
2023-03-29T03:02:20.140Z,992.46
2023-03-29T03:03:20.253Z,992.45
2023-03-29T03:04:20.082Z,992.35
2023-03-29T03:05:20.054Z,992.40
2023-03-29T03:06:20.047Z,992.34
2023-03-29T03:07:20.157Z,992.38
2023-03-29T03:08:20.056Z,992.39
2023-03-29T03:09:20.094Z,992.44
2023-03-29T03:10:19.992Z,992.40
2023-03-29T03:11:20.059Z,992.43
2023-03-29T03:12:19.986Z,992.43
2023-03-29T03:13:20.085Z,992.48
2023-03-29T03:14:19.968Z,992.50
2023-03-29T03:15:20.001Z,992.50
2023-03-29T03:16:20.680Z,992.48
2023-03-29T03:17:20.118Z,992.41
2023-03-29T03:18:20.024Z,992.36
2023-03-29T03:19:19.960Z,992.32
2023-03-29T03:20:20.653Z,992.32
2023-03-29T03:21:19.839Z,992.34
2023-03-29T03:22:20.557Z,992.28
2023-03-29T03:23:19.863Z,992.24
2023-03-29T03:24:19.924Z,992.28
2023-03-29T03:25:19.818Z,992.26
2023-03-29T03:26:19.785Z,992.27
2023-03-29T03:27:19.774Z,992.27
2023-03-29T03:28:19.806Z,992.28
2023-03-29T03:29:19.746Z,992.25
2023-03-29T03:30:19.741Z,992.22
2023-03-29T03:31:19.785Z,992.16
2023-03-29T03:32:19.763Z,992.16
2023-03-29T03:33:19.731Z,992.16
2023-03-29T03:34:19.801Z,992.14
2023-03-29T03:35:19.902Z,992.11
2023-03-29T03:36:19.721Z,992.13
2023-03-29T03:37:19.677Z,992.17
2023-03-29T03:38:19.692Z,992.16
2023-03-29T03:39:19.639Z,992.13
2023-03-29T03:40:19.623Z,992.08
2023-03-29T03:41:19.666Z,992.11
2023-03-29T03:42:19.585Z,992.15
2023-03-29T03:43:19.678Z,992.16
2023-03-29T03:44:19.606Z,992.16
2023-03-29T03:45:19.584Z,992.13
2023-03-29T03:46:19.555Z,992.16
2023-03-29T03:47:19.524Z,992.11
2023-03-29T03:48:19.551Z,992.09
2023-03-29T03:49:19.489Z,992.10
2023-03-29T03:50:19.514Z,992.10
2023-03-29T03:51:19.487Z,992.05
2023-03-29T03:52:19.449Z,992.03
2023-03-29T03:53:19.455Z,992.06
2023-03-29T03:54:19.440Z,992.01
2023-03-29T03:55:19.419Z,992.01
2023-03-29T03:56:19.446Z,992.01
2023-03-29T03:57:20.096Z,992.03
2023-03-29T03:58:19.516Z,991.99
2023-03-29T03:59:19.485Z,991.94
2023-03-29T04:00:19.548Z,991.99
2023-03-29T04:01:19.374Z,991.98
2023-03-29T04:02:19.361Z,992.01
2023-03-29T04:03:19.513Z,992.01
2023-03-29T04:04:19.409Z,991.96
2023-03-29T04:05:19.331Z,992.00
2023-03-29T04:06:19.253Z,991.99
2023-03-29T04:07:27.902Z,991.99
2023-03-29T04:08:19.302Z,992.02
2023-03-29T04:09:19.223Z,991.99
2023-03-29T04:10:19.217Z,991.95
2023-03-29T04:11:19.192Z,991.96
2023-03-29T04:12:19.173Z,991.95
2023-03-29T04:13:19.205Z,991.94
2023-03-29T04:14:19.153Z,991.87
2023-03-29T04:15:19.182Z,991.89
2023-03-29T04:16:19.877Z,991.90
2023-03-29T04:17:19.312Z,991.90
2023-03-29T04:18:19.233Z,991.87
2023-03-29T04:19:19.171Z,991.89
2023-03-29T04:20:19.088Z,991.87
2023-03-29T04:21:21.238Z,991.86
2023-03-29T04:22:19.062Z,991.90
2023-03-29T04:23:19.138Z,991.90
2023-03-29T04:24:19.016Z,991.94
2023-03-29T04:25:19.791Z,991.92
2023-03-29T04:26:18.989Z,991.90
2023-03-29T04:27:19.628Z,991.88
2023-03-29T04:28:18.999Z,991.89
2023-03-29T04:29:18.996Z,991.88
2023-03-29T04:30:18.972Z,991.87
2023-03-29T04:31:19.059Z,991.90
2023-03-29T04:32:18.924Z,991.89
2023-03-29T04:33:19.026Z,991.88
2023-03-29T04:34:18.891Z,991.87
2023-03-29T04:35:18.903Z,991.86
2023-03-29T04:36:19.694Z,991.84
2023-03-29T04:37:18.956Z,991.83
2023-03-29T04:38:18.901Z,991.80
2023-03-29T04:39:18.808Z,991.78
2023-03-29T04:40:18.841Z,991.77
2023-03-29T04:41:18.836Z,991.75
2023-03-29T04:42:22.124Z,991.74
2023-03-29T04:43:19.019Z,991.77
2023-03-29T04:44:18.733Z,991.77
2023-03-29T04:45:18.825Z,991.77
2023-03-29T04:46:18.788Z,991.84
2023-03-29T04:47:18.685Z,991.76
2023-03-29T04:48:18.695Z,991.83
2023-03-29T04:49:18.697Z,991.74
2023-03-29T04:50:18.669Z,991.74
2023-03-29T04:51:18.631Z,991.76
2023-03-29T04:52:18.616Z,991.69
2023-03-29T04:53:18.661Z,991.70
2023-03-29T04:54:18.622Z,991.78
2023-03-29T04:55:18.600Z,991.78
2023-03-29T04:56:18.710Z,991.79
2023-03-29T04:57:18.613Z,991.80
2023-03-29T04:58:21.500Z,991.71
2023-03-29T04:59:18.526Z,991.70
2023-03-29T05:00:18.537Z,991.69
2023-03-29T05:01:18.649Z,991.68
2023-03-29T05:02:18.506Z,991.63
2023-03-29T05:03:18.513Z,991.68
2023-03-29T05:04:19.513Z,991.60
2023-03-29T05:05:18.458Z,991.59
2023-03-29T05:06:18.433Z,991.61
2023-03-29T05:07:18.432Z,991.58
2023-03-29T05:08:18.442Z,991.61
2023-03-29T05:09:18.415Z,991.63
2023-03-29T05:10:18.397Z,991.61
2023-03-29T05:11:18.368Z,991.62
2023-03-29T05:12:18.359Z,991.63
2023-03-29T05:13:18.397Z,991.61
2023-03-29T05:14:18.331Z,991.67
2023-03-29T05:15:18.316Z,991.67
2023-03-29T05:16:19.306Z,991.68
2023-03-29T05:17:18.292Z,991.62
2023-03-29T05:18:18.380Z,991.61
2023-03-29T05:19:18.303Z,991.63
2023-03-29T05:20:18.249Z,991.61
2023-03-29T05:21:18.251Z,991.62
2023-03-29T05:22:18.246Z,991.59
2023-03-29T05:23:18.211Z,991.59
2023-03-29T05:24:18.227Z,991.54
2023-03-29T05:25:18.199Z,991.51
2023-03-29T05:26:18.176Z,991.57
2023-03-29T05:27:18.175Z,991.57
2023-03-29T05:28:18.167Z,991.55
2023-03-29T05:29:18.287Z,991.55
2023-03-29T05:30:18.129Z,991.54
2023-03-29T05:31:18.151Z,991.53
2023-03-29T05:32:18.097Z,991.53
2023-03-29T05:33:18.098Z,991.55
2023-03-29T05:34:18.085Z,991.54
2023-03-29T05:35:18.084Z,991.58
2023-03-29T05:36:18.089Z,991.52
2023-03-29T05:37:18.046Z,991.50
2023-03-29T05:38:18.028Z,991.48
2023-03-29T05:39:18.023Z,991.51
2023-03-29T05:40:17.985Z,991.46
2023-03-29T05:41:17.977Z,991.48
2023-03-29T05:42:17.980Z,991.46
2023-03-29T05:43:17.945Z,991.46
2023-03-29T05:44:17.969Z,991.41
2023-03-29T05:45:17.973Z,991.41
2023-03-29T05:46:18.004Z,991.35
2023-03-29T05:47:17.907Z,991.28
2023-03-29T05:48:17.888Z,991.31
2023-03-29T05:49:17.891Z,991.29
2023-03-29T05:50:17.869Z,991.35
2023-03-29T05:51:17.879Z,991.35
2023-03-29T05:52:17.845Z,991.37
2023-03-29T05:53:17.821Z,991.37
2023-03-29T05:54:17.854Z,991.36
2023-03-29T05:55:17.837Z,991.37
2023-03-29T05:56:17.844Z,991.37
2023-03-29T05:57:17.814Z,991.43
2023-03-29T05:58:17.781Z,991.42
2023-03-29T05:59:17.775Z,991.41
2023-03-29T06:00:17.738Z,991.41
2023-03-29T06:01:17.727Z,991.40
2023-03-29T06:02:17.753Z,991.42
2023-03-29T06:03:21.123Z,991.42
2023-03-29T06:04:17.789Z,991.46
2023-03-29T06:05:17.661Z,991.43
2023-03-29T06:06:17.703Z,991.42
2023-03-29T06:07:17.641Z,991.47
2023-03-29T06:08:17.640Z,991.43
2023-03-29T06:09:17.661Z,991.44
2023-03-29T06:10:17.601Z,991.41
2023-03-29T06:11:17.641Z,991.42
2023-03-29T06:12:17.594Z,991.43
2023-03-29T06:13:17.576Z,991.43
2023-03-29T06:14:17.601Z,991.42
2023-03-29T06:15:17.539Z,991.42
2023-03-29T06:16:17.561Z,991.46
2023-03-29T06:17:17.567Z,991.45
2023-03-29T06:18:17.501Z,991.38
2023-03-29T06:19:17.502Z,991.45
2023-03-29T06:20:17.477Z,991.45
2023-03-29T06:21:17.472Z,991.40
2023-03-29T06:22:17.445Z,991.43
2023-03-29T06:23:17.426Z,991.43
2023-03-29T06:24:17.450Z,991.38
2023-03-29T06:25:17.413Z,991.40
2023-03-29T06:26:17.392Z,991.38
2023-03-29T06:27:17.373Z,991.35
2023-03-29T06:28:17.386Z,991.41
2023-03-29T06:29:17.371Z,991.34
2023-03-29T06:30:17.341Z,991.36
2023-03-29T06:31:17.347Z,991.37
2023-03-29T06:32:17.327Z,991.37
2023-03-29T06:33:17.304Z,991.42
2023-03-29T06:34:17.375Z,991.37
2023-03-29T06:35:17.281Z,991.41
2023-03-29T06:36:17.271Z,991.36
2023-03-29T06:37:17.251Z,991.39
2023-03-29T06:38:17.249Z,991.33
2023-03-29T06:39:17.269Z,991.43
2023-03-29T06:40:17.210Z,991.42
2023-03-29T06:41:17.199Z,991.37
2023-03-29T06:42:21.584Z,991.38
2023-03-29T06:43:17.176Z,991.41
2023-03-29T06:44:17.191Z,991.38
2023-03-29T06:45:17.142Z,991.39
2023-03-29T06:46:17.218Z,991.37
2023-03-29T06:47:17.158Z,991.36
2023-03-29T06:48:17.259Z,991.45
2023-03-29T06:49:17.323Z,991.44
2023-03-29T06:50:17.083Z,991.44
2023-03-29T06:51:17.058Z,991.44
2023-03-29T06:52:17.056Z,991.38
2023-03-29T06:53:17.053Z,991.39
2023-03-29T06:54:17.062Z,991.37
2023-03-29T06:55:17.015Z,991.39
2023-03-29T06:56:17.000Z,991.40
2023-03-29T06:57:17.050Z,991.41
2023-03-29T06:58:17.390Z,991.41
2023-03-29T06:59:17.019Z,991.32
2023-03-29T07:00:16.948Z,991.35
2023-03-29T07:01:16.982Z,991.42
2023-03-29T07:02:16.950Z,991.46
2023-03-29T07:03:16.968Z,991.49
2023-03-29T07:04:16.968Z,991.43
2023-03-29T07:05:16.878Z,991.40
2023-03-29T07:06:16.870Z,991.32
2023-03-29T07:07:16.853Z,991.28
2023-03-29T07:08:16.842Z,991.31
2023-03-29T07:09:19.376Z,991.28
2023-03-29T07:10:16.822Z,991.23
2023-03-29T07:11:16.804Z,991.19
2023-03-29T07:12:16.814Z,991.22
2023-03-29T07:13:16.775Z,991.25
2023-03-29T07:14:16.827Z,991.30
2023-03-29T07:15:16.753Z,991.34
2023-03-29T07:16:16.817Z,991.44
2023-03-29T07:17:16.757Z,991.48
2023-03-29T07:18:16.701Z,991.47
2023-03-29T07:19:16.741Z,991.49
2023-03-29T07:20:16.805Z,991.51
2023-03-29T07:21:16.683Z,991.47
2023-03-29T07:22:16.750Z,991.49
2023-03-29T07:23:16.643Z,991.53
2023-03-29T07:24:16.686Z,991.49
2023-03-29T07:25:16.612Z,991.47
2023-03-29T07:26:28.675Z,991.45
2023-03-29T07:27:17.610Z,991.50
2023-03-29T07:28:16.598Z,991.53
2023-03-29T07:29:16.551Z,991.55
2023-03-29T07:30:16.633Z,991.53
2023-03-29T07:31:16.532Z,991.53
2023-03-29T07:32:16.669Z,991.53
2023-03-29T07:33:16.598Z,991.48
2023-03-29T07:34:16.578Z,991.55
2023-03-29T07:35:16.491Z,991.52
2023-03-29T07:36:16.557Z,991.54
2023-03-29T07:37:16.447Z,991.51
2023-03-29T07:38:16.463Z,991.50
2023-03-29T07:39:16.461Z,991.47
2023-03-29T07:40:16.443Z,991.59
2023-03-29T07:41:16.412Z,991.56
2023-03-29T07:42:16.390Z,991.54
2023-03-29T07:43:16.378Z,991.59
2023-03-29T07:44:16.395Z,991.57
2023-03-29T07:45:16.357Z,991.52
2023-03-29T07:46:16.386Z,991.46
2023-03-29T07:47:16.338Z,991.52
2023-03-29T07:48:17.687Z,991.52
2023-03-29T07:49:17.028Z,991.56
2023-03-29T07:50:16.516Z,991.58
2023-03-29T07:51:16.282Z,991.53
2023-03-29T07:52:16.509Z,991.55
2023-03-29T07:53:16.251Z,991.55
2023-03-29T07:54:16.276Z,991.52
2023-03-29T07:55:16.220Z,991.53
2023-03-29T07:56:16.269Z,991.56
2023-03-29T07:57:16.261Z,991.53
2023-03-29T07:58:16.186Z,991.53
2023-03-29T07:59:16.193Z,991.55
2023-03-29T08:00:16.722Z,991.56
2023-03-29T08:01:18.881Z,991.56
2023-03-29T08:02:18.861Z,991.59
2023-03-29T08:03:17.295Z,991.59
2023-03-29T08:04:16.557Z,991.60
2023-03-29T08:05:29.222Z,991.54
2023-03-29T08:06:17.721Z,991.54
2023-03-29T08:07:18.837Z,991.52
2023-03-29T08:08:16.050Z,991.50
2023-03-29T08:09:17.046Z,991.52
2023-03-29T08:10:16.056Z,991.53
2023-03-29T08:11:16.004Z,991.53
2023-03-29T08:12:16.243Z,991.50
2023-03-29T08:13:16.004Z,991.49
2023-03-29T08:14:16.034Z,991.50
2023-03-29T08:15:15.989Z,991.49
2023-03-29T08:16:16.210Z,991.55
2023-03-29T08:17:15.957Z,991.49
2023-03-29T08:18:15.919Z,991.50
2023-03-29T08:19:16.012Z,991.53
2023-03-29T08:20:16.226Z,991.51
2023-03-29T08:21:15.894Z,991.55
2023-03-29T08:22:15.870Z,991.59
2023-03-29T08:23:15.939Z,991.55
2023-03-29T08:24:16.009Z,991.59
2023-03-29T08:25:15.926Z,991.59
2023-03-29T08:26:15.845Z,991.65
2023-03-29T08:27:15.883Z,991.63
2023-03-29T08:28:15.796Z,991.63
2023-03-29T08:29:15.812Z,991.65
2023-03-29T08:30:15.811Z,991.60
2023-03-29T08:31:15.765Z,991.62
2023-03-29T08:32:15.771Z,991.61
2023-03-29T08:33:15.751Z,991.56
2023-03-29T08:34:15.709Z,991.63
2023-03-29T08:35:15.741Z,991.66
2023-03-29T08:36:15.731Z,991.70
2023-03-29T08:37:15.675Z,991.63
2023-03-29T08:38:15.757Z,991.64
2023-03-29T08:39:16.812Z,991.61
2023-03-29T08:40:15.767Z,991.63
2023-03-29T08:41:16.617Z,991.67
2023-03-29T08:42:15.609Z,991.70
2023-03-29T08:43:15.681Z,991.67
2023-03-29T08:44:15.774Z,991.68
2023-03-29T08:45:15.593Z,991.71
2023-03-29T08:46:15.651Z,991.69
2023-03-29T08:47:15.734Z,991.72
2023-03-29T08:48:15.569Z,991.67
2023-03-29T08:49:15.512Z,991.65
2023-03-29T08:50:15.588Z,991.69
2023-03-29T08:51:15.496Z,991.65
2023-03-29T08:52:15.652Z,991.68
2023-03-29T08:53:15.523Z,991.65
2023-03-29T08:54:15.446Z,991.64
2023-03-29T08:55:15.502Z,991.68
2023-03-29T08:56:15.450Z,991.66
2023-03-29T08:57:15.453Z,991.62
2023-03-29T08:58:15.399Z,991.60
2023-03-29T08:59:15.426Z,991.62
2023-03-29T09:00:16.093Z,991.59
2023-03-29T09:01:15.424Z,991.54
2023-03-29T09:02:15.381Z,991.46
2023-03-29T09:03:15.583Z,991.49
2023-03-29T09:04:15.409Z,991.45
2023-03-29T09:05:15.314Z,991.41
2023-03-29T09:06:15.320Z,991.43
2023-03-29T09:07:15.365Z,991.42
2023-03-29T09:08:15.261Z,991.45
2023-03-29T09:09:15.283Z,991.42
2023-03-29T09:10:15.265Z,991.40
2023-03-29T09:11:15.217Z,991.42
2023-03-29T09:12:15.214Z,991.37
2023-03-29T09:13:15.195Z,991.39
2023-03-29T09:14:15.985Z,991.35
2023-03-29T09:15:15.190Z,991.37
2023-03-29T09:16:15.187Z,991.40
2023-03-29T09:17:15.135Z,991.35
2023-03-29T09:18:15.164Z,991.41
2023-03-29T09:19:15.103Z,991.41
2023-03-29T09:20:15.129Z,991.34
2023-03-29T09:21:15.101Z,991.32
2023-03-29T09:22:15.110Z,991.39
2023-03-29T09:23:15.067Z,991.38
2023-03-29T09:24:15.044Z,991.40
2023-03-29T09:25:15.074Z,991.36
2023-03-29T09:26:16.512Z,991.37
2023-03-29T09:27:15.014Z,991.37
2023-03-29T09:28:14.991Z,991.31
2023-03-29T09:29:14.982Z,991.34
2023-03-29T09:30:14.993Z,991.35
2023-03-29T09:31:14.987Z,991.35
2023-03-29T09:32:14.945Z,991.36
2023-03-29T09:33:14.931Z,991.38
2023-03-29T09:34:15.956Z,991.44
2023-03-29T09:35:14.924Z,991.47
2023-03-29T09:36:14.922Z,991.42
2023-03-29T09:37:14.873Z,991.40
2023-03-29T09:38:14.864Z,991.39
2023-03-29T09:39:14.854Z,991.38
2023-03-29T09:40:14.911Z,991.41
2023-03-29T09:41:14.840Z,991.39
2023-03-29T09:42:14.821Z,991.35
2023-03-29T09:43:14.803Z,991.29
2023-03-29T09:44:27.787Z,991.37
2023-03-29T09:45:15.811Z,991.34
2023-03-29T09:46:14.792Z,991.33
2023-03-29T09:47:14.740Z,991.28
2023-03-29T09:48:14.734Z,991.29
2023-03-29T09:49:17.138Z,991.31
2023-03-29T09:50:29.608Z,991.35
2023-03-29T09:51:15.688Z,991.33
2023-03-29T09:52:14.671Z,991.31
2023-03-29T09:53:14.663Z,991.33
2023-03-29T09:54:14.670Z,991.34
2023-03-29T09:55:14.633Z,991.33
2023-03-29T09:56:14.656Z,991.36
2023-03-29T09:57:14.646Z,991.31
2023-03-29T09:58:14.616Z,991.30
2023-03-29T09:59:14.599Z,991.33
2023-03-29T10:00:14.578Z,991.33
2023-03-29T10:01:14.625Z,991.33
2023-03-29T10:02:14.545Z,991.33
2023-03-29T10:03:14.564Z,991.29
2023-03-29T10:04:14.760Z,991.30
2023-03-29T10:05:14.503Z,991.27
2023-03-29T10:06:14.567Z,991.29
2023-03-29T10:07:14.482Z,991.27
2023-03-29T10:08:14.467Z,991.26
2023-03-29T10:09:14.455Z,991.22
2023-03-29T10:10:14.457Z,991.27
2023-03-29T10:11:15.250Z,991.31
2023-03-29T10:12:14.404Z,991.25
2023-03-29T10:13:14.407Z,991.27
2023-03-29T10:14:14.496Z,991.23
2023-03-29T10:15:26.707Z,991.17
2023-03-29T10:16:15.719Z,991.15
2023-03-29T10:17:14.550Z,991.11
2023-03-29T10:18:14.399Z,991.13
2023-03-29T10:19:14.322Z,991.14
2023-03-29T10:20:14.356Z,991.09
2023-03-29T10:21:14.338Z,991.06
2023-03-29T10:22:14.275Z,991.00
2023-03-29T10:23:14.275Z,991.02
2023-03-29T10:24:14.253Z,991.02
2023-03-29T10:25:14.244Z,991.04
2023-03-29T10:26:14.568Z,991.03
2023-03-29T10:27:14.243Z,991.07
2023-03-29T10:28:14.459Z,991.10
2023-03-29T10:29:14.186Z,991.14
2023-03-29T10:30:14.301Z,991.11
2023-03-29T10:31:15.015Z,991.18
2023-03-29T10:32:14.145Z,991.16
2023-03-29T10:33:14.265Z,991.18
2023-03-29T10:34:14.125Z,991.13
2023-03-29T10:35:14.102Z,991.10
2023-03-29T10:36:14.330Z,991.13
2023-03-29T10:37:14.088Z,991.14
2023-03-29T10:38:14.060Z,991.14
2023-03-29T10:39:14.054Z,991.12
2023-03-29T10:40:14.189Z,991.09
2023-03-29T10:41:14.160Z,991.03
2023-03-29T10:42:14.019Z,990.98
2023-03-29T10:43:14.007Z,990.92
2023-03-29T10:44:13.980Z,990.95
2023-03-29T10:45:13.976Z,990.91
2023-03-29T10:46:14.129Z,990.93
2023-03-29T10:47:13.942Z,990.98
2023-03-29T10:48:14.022Z,991.01
2023-03-29T10:49:13.924Z,990.95
2023-03-29T10:50:13.948Z,991.01
2023-03-29T10:51:13.942Z,990.95
2023-03-29T10:52:13.882Z,990.92
2023-03-29T10:53:14.009Z,990.96
2023-03-29T10:54:14.042Z,990.92
2023-03-29T10:55:13.884Z,990.93
2023-03-29T10:56:13.894Z,990.91
2023-03-29T10:57:13.832Z,990.94
2023-03-29T10:58:13.933Z,990.98
2023-03-29T10:59:13.793Z,991.00
2023-03-29T11:00:13.809Z,990.98
2023-03-29T11:01:13.983Z,991.00
2023-03-29T11:02:14.106Z,991.00
2023-03-29T11:03:15.873Z,990.97
2023-03-29T11:04:13.723Z,990.96
2023-03-29T11:05:13.927Z,990.93
2023-03-29T11:06:13.753Z,990.90
2023-03-29T11:07:13.690Z,990.93
2023-03-29T11:08:13.670Z,990.94
2023-03-29T11:09:13.660Z,990.95
2023-03-29T11:10:13.643Z,990.98
2023-03-29T11:11:13.666Z,990.99
2023-03-29T11:12:16.047Z,990.94
2023-03-29T11:13:13.693Z,990.98
2023-03-29T11:14:14.099Z,990.96
2023-03-29T11:15:13.619Z,990.98
2023-03-29T11:16:13.686Z,990.98
2023-03-29T11:17:13.552Z,990.92
2023-03-29T11:18:13.675Z,990.97
2023-03-29T11:19:13.596Z,990.94
2023-03-29T11:20:13.640Z,990.89
2023-03-29T11:21:13.527Z,990.91
2023-03-29T11:22:13.570Z,990.84
2023-03-29T11:23:13.474Z,990.84
2023-03-29T11:24:13.968Z,990.84
2023-03-29T11:25:13.454Z,990.84
2023-03-29T11:26:13.479Z,990.85
2023-03-29T11:27:13.424Z,990.86
2023-03-29T11:28:13.397Z,990.85
2023-03-29T11:29:13.402Z,990.91
2023-03-29T11:30:13.385Z,990.83
2023-03-29T11:31:13.449Z,990.86
2023-03-29T11:32:13.350Z,990.93
2023-03-29T11:33:13.342Z,990.93
2023-03-29T11:34:13.334Z,990.86
2023-03-29T11:35:13.331Z,990.88
2023-03-29T11:36:13.370Z,990.86
2023-03-29T11:37:13.298Z,990.88
2023-03-29T11:38:13.270Z,990.88
2023-03-29T11:39:13.262Z,990.90
2023-03-29T11:40:13.251Z,990.89
2023-03-29T11:41:13.262Z,990.93
2023-03-29T11:42:13.238Z,990.92
2023-03-29T11:43:13.266Z,990.89
2023-03-29T11:44:13.189Z,990.90
2023-03-29T11:45:13.190Z,990.84
2023-03-29T11:46:13.235Z,990.87
2023-03-29T11:47:13.161Z,990.85
2023-03-29T11:48:13.133Z,990.83
2023-03-29T11:49:13.134Z,990.81
2023-03-29T11:50:13.110Z,990.84
2023-03-29T11:51:13.625Z,990.84
2023-03-29T11:52:13.080Z,990.76
2023-03-29T11:53:13.084Z,990.77
2023-03-29T11:54:13.066Z,990.80
2023-03-29T11:55:13.136Z,990.80
2023-03-29T11:56:13.069Z,990.78
2023-03-29T11:57:13.939Z,990.76
2023-03-29T11:58:13.232Z,990.80
2023-03-29T11:59:13.176Z,990.79
2023-03-29T12:00:12.985Z,990.82
2023-03-29T12:01:13.011Z,990.76
2023-03-29T12:02:12.974Z,990.80
2023-03-29T12:03:13.144Z,990.77
2023-03-29T12:04:13.007Z,990.76
2023-03-29T12:05:13.022Z,990.75
2023-03-29T12:06:12.941Z,990.79
2023-03-29T12:07:12.890Z,990.77
2023-03-29T12:08:12.872Z,990.72
2023-03-29T12:09:14.267Z,990.73
2023-03-29T12:10:12.852Z,990.74
2023-03-29T12:11:12.876Z,990.77
2023-03-29T12:12:12.824Z,990.78
2023-03-29T12:13:12.910Z,990.72
2023-03-29T12:14:12.795Z,990.68
2023-03-29T12:15:12.799Z,990.66
2023-03-29T12:16:12.888Z,990.64
2023-03-29T12:17:12.771Z,990.68
2023-03-29T12:18:12.749Z,990.70
2023-03-29T12:19:12.798Z,990.72
2023-03-29T12:20:12.717Z,990.66
2023-03-29T12:21:12.731Z,990.63
2023-03-29T12:22:12.692Z,990.64
2023-03-29T12:23:12.681Z,990.59
2023-03-29T12:24:12.661Z,990.59
2023-03-29T12:25:12.659Z,990.60
2023-03-29T12:26:12.663Z,990.55
2023-03-29T12:27:12.867Z,990.51
2023-03-29T12:28:12.611Z,990.53